createdAt,value
2019-02-21T00:01:37.602Z,4.43
2019-02-21T00:04:05.165Z,3.93
2019-02-21T00:06:32.759Z,3.60
2019-02-21T00:09:00.984Z,3.87
2019-02-21T00:11:28.444Z,3.40
2019-02-21T00:13:55.946Z,3.67
2019-02-21T00:16:23.412Z,3.60
2019-02-21T00:18:50.875Z,3.40
2019-02-21T00:21:18.438Z,3.50
2019-02-21T00:23:45.984Z,3.37
2019-02-21T00:26:13.535Z,3.67
2019-02-21T00:28:41.010Z,3.47
2019-02-21T00:31:08.576Z,3.87
2019-02-21T00:33:36.796Z,4.20
2019-02-21T00:36:04.259Z,3.90
2019-02-21T00:38:32.495Z,3.57
2019-02-21T00:40:59.947Z,4.10
2019-02-21T00:43:27.502Z,3.83
2019-02-21T00:45:55.666Z,3.63
2019-02-21T00:48:23.110Z,3.70
2019-02-21T00:50:50.628Z,3.40
2019-02-21T00:53:18.092Z,4.07
2019-02-21T00:55:47.184Z,3.73
2019-02-21T00:58:14.779Z,3.40
2019-02-21T01:00:46.611Z,3.77
2019-02-21T01:03:10.490Z,4.10
2019-02-21T01:05:38.052Z,4.20
2019-02-21T01:08:05.500Z,3.97
2019-02-21T01:10:32.977Z,3.87
2019-02-21T01:13:00.426Z,3.87
2019-02-21T01:15:27.890Z,4.23
2019-02-21T01:17:55.346Z,3.80
2019-02-21T01:20:22.850Z,3.57
2019-02-21T01:22:51.083Z,3.70
2019-02-21T01:25:18.537Z,3.87
2019-02-21T01:27:46.042Z,3.87
2019-02-21T01:30:13.585Z,4.57
2019-02-21T01:32:41.082Z,3.70
2019-02-21T01:35:09.317Z,4.63
2019-02-21T01:37:36.789Z,4.47
2019-02-21T01:40:04.358Z,4.73
2019-02-21T01:42:31.831Z,4.43
2019-02-21T01:44:59.392Z,4.20
2019-02-21T01:47:26.840Z,4.27
2019-02-21T01:49:54.300Z,4.70
2019-02-21T01:52:21.782Z,5.00
2019-02-21T01:54:49.348Z,5.03
2019-02-21T01:57:16.805Z,4.50
2019-02-21T01:59:44.358Z,4.77
2019-02-21T02:02:11.866Z,5.07
2019-02-21T02:04:40.330Z,5.27
2019-02-21T02:07:07.815Z,4.47
2019-02-21T02:09:36.052Z,5.83
2019-02-21T02:12:04.288Z,5.77
2019-02-21T02:14:31.748Z,5.73
2019-02-21T02:16:59.228Z,5.47
2019-02-21T02:19:26.728Z,5.97
2019-02-21T02:21:54.168Z,5.37
2019-02-21T02:24:21.635Z,5.43
2019-02-21T02:26:49.085Z,5.43
2019-02-21T02:29:16.561Z,6.20
2019-02-21T02:31:44.034Z,6.17
2019-02-21T02:34:11.510Z,7.83
2019-02-21T02:36:38.970Z,6.33
2019-02-21T02:39:06.522Z,6.53
2019-02-21T02:41:33.982Z,6.50
2019-02-21T02:44:01.449Z,7.43
2019-02-21T02:46:28.943Z,6.67
2019-02-21T02:48:56.399Z,6.70
2019-02-21T02:51:24.618Z,7.07
2019-02-21T02:53:52.087Z,7.27
2019-02-21T02:56:19.556Z,7.30
2019-02-21T02:58:47.133Z,6.07
2019-02-21T03:01:14.689Z,7.17
2019-02-21T03:03:42.156Z,6.07
2019-02-21T03:06:09.615Z,7.07
2019-02-21T03:08:37.190Z,7.00
2019-02-21T03:11:06.416Z,6.20
2019-02-21T03:13:34.670Z,6.60
2019-02-21T03:16:02.136Z,6.40
2019-02-21T03:18:29.676Z,6.73
2019-02-21T03:20:57.259Z,6.37
2019-02-21T03:23:25.081Z,5.87
2019-02-21T03:25:52.543Z,5.90
2019-02-21T03:28:20.010Z,6.60
2019-02-21T03:30:47.478Z,5.80
2019-02-21T03:33:14.934Z,5.77
2019-02-21T03:35:42.395Z,5.80
2019-02-21T03:38:09.854Z,6.47
2019-02-21T03:40:37.346Z,6.57
2019-02-21T03:43:04.787Z,6.80
2019-02-21T03:45:32.246Z,6.83
2019-02-21T03:47:59.741Z,6.90
2019-02-21T03:50:27.208Z,6.60
2019-02-21T03:52:54.699Z,7.17
2019-02-21T03:55:22.923Z,5.87
2019-02-21T03:57:50.389Z,6.20
2019-02-21T04:00:17.880Z,6.77
2019-02-21T04:02:46.178Z,6.60
2019-02-21T04:05:14.457Z,6.33
2019-02-21T04:07:42.688Z,6.97
2019-02-21T04:10:10.184Z,6.83
2019-02-21T04:12:37.649Z,6.63
2019-02-21T04:15:06.083Z,7.17
2019-02-21T04:17:33.554Z,6.13
2019-02-21T04:20:01.179Z,6.83
2019-02-21T04:22:28.573Z,6.97
2019-02-21T04:24:56.067Z,6.90
2019-02-21T04:27:23.621Z,7.47
2019-02-21T04:29:51.116Z,6.97
2019-02-21T04:32:18.574Z,7.20
2019-02-21T04:34:46.036Z,6.03
2019-02-21T04:37:13.493Z,6.87
2019-02-21T04:39:42.454Z,6.17
2019-02-21T04:42:09.923Z,6.60
2019-02-21T04:44:37.383Z,7.40
2019-02-21T04:47:04.845Z,6.77
2019-02-21T04:49:32.325Z,7.50
2019-02-21T04:51:59.770Z,7.47
2019-02-21T04:54:27.242Z,7.73
2019-02-21T04:56:54.705Z,7.03
2019-02-21T04:59:22.280Z,7.63
2019-02-21T05:01:49.737Z,6.77
2019-02-21T05:04:17.193Z,8.47
2019-02-21T05:06:44.660Z,7.30
2019-02-21T05:09:12.134Z,7.40
2019-02-21T05:11:39.760Z,7.53
2019-02-21T05:14:07.226Z,8.03
2019-02-21T05:16:34.672Z,8.00
2019-02-21T05:19:02.158Z,8.40
2019-02-21T05:21:29.895Z,8.40
2019-02-21T05:23:57.406Z,8.53
2019-02-21T05:26:25.638Z,7.37
2019-02-21T05:28:53.795Z,8.63
2019-02-21T05:31:27.659Z,7.90
2019-02-21T05:33:55.110Z,8.27
2019-02-21T05:36:24.464Z,8.67
2019-02-21T05:38:58.380Z,9.20
2019-02-21T05:41:32.120Z,8.50
2019-02-21T05:44:14.283Z,8.20
2019-02-21T05:46:45.125Z,8.90
2019-02-21T05:49:32.098Z,8.37
2019-02-21T05:52:01.128Z,8.00
2019-02-21T05:54:31.324Z,8.90
2019-02-21T05:57:02.089Z,8.17
2019-02-21T05:59:30.300Z,9.00
2019-02-21T06:01:57.827Z,8.17
2019-02-21T06:04:31.703Z,8.07
2019-02-21T06:07:04.728Z,8.00
2019-02-21T06:09:34.883Z,9.03
2019-02-21T06:12:02.343Z,9.37
2019-02-21T06:14:42.632Z,8.80
2019-02-21T06:17:20.782Z,8.67
2019-02-21T06:19:49.018Z,9.80
2019-02-21T06:22:19.391Z,8.77
2019-02-21T06:24:49.234Z,9.33
2019-02-21T06:27:26.603Z,9.57
2019-02-21T06:29:54.969Z,9.87
2019-02-21T06:32:22.451Z,9.40
2019-02-21T06:34:52.281Z,9.73
2019-02-21T06:37:17.421Z,9.83
2019-02-21T06:39:44.872Z,11.73
2019-02-21T06:42:12.346Z,9.90
2019-02-21T06:44:40.611Z,10.70
2019-02-21T06:47:08.106Z,10.47
2019-02-21T06:49:35.648Z,10.73
2019-02-21T06:52:04.508Z,11.18
2019-02-21T06:54:31.980Z,10.97
2019-02-21T06:57:00.212Z,11.33
2019-02-21T06:59:28.443Z,11.13
2019-02-21T07:01:55.906Z,11.27
2019-02-21T07:04:23.352Z,11.03
2019-02-21T07:06:50.829Z,11.53
2019-02-21T07:09:18.286Z,10.33
2019-02-21T07:11:46.126Z,10.43
2019-02-21T07:14:14.752Z,10.83
2019-02-21T07:16:42.233Z,11.30
2019-02-21T07:19:10.828Z,12.07
2019-02-21T07:21:38.059Z,11.13
2019-02-21T07:24:05.534Z,11.07
2019-02-21T07:26:32.999Z,12.03
2019-02-21T07:29:00.569Z,10.07
2019-02-21T07:31:29.662Z,11.87
2019-02-21T07:33:55.699Z,10.93
2019-02-21T07:36:24.661Z,11.73
2019-02-21T07:38:52.121Z,12.27
2019-02-21T07:41:19.710Z,12.10
2019-02-21T07:43:48.268Z,12.30
2019-02-21T07:46:15.766Z,12.37
2019-02-21T07:48:43.221Z,12.13
2019-02-21T07:51:13.398Z,12.90
2019-02-21T07:53:38.257Z,12.50
2019-02-21T07:56:05.701Z,12.40
2019-02-21T07:58:33.186Z,11.10
2019-02-21T08:01:00.641Z,12.53
2019-02-21T08:03:32.162Z,15.25
2019-02-21T08:05:56.455Z,12.63
2019-02-21T08:08:23.951Z,12.77
2019-02-21T08:10:51.420Z,13.50
2019-02-21T08:13:18.877Z,12.40
2019-02-21T08:15:46.433Z,13.23
2019-02-21T08:18:13.885Z,12.93
2019-02-21T08:20:41.419Z,13.00
2019-02-21T08:23:10.948Z,12.97
2019-02-21T08:25:36.373Z,13.57
2019-02-21T08:28:03.879Z,12.83
2019-02-21T08:30:33.071Z,12.60
2019-02-21T08:35:54.034Z,17.75
2019-02-21T08:38:19.567Z,13.70
2019-02-21T08:40:47.026Z,13.37
2019-02-21T08:43:14.529Z,12.13
2019-02-21T08:45:42.064Z,12.23
2019-02-21T08:48:09.634Z,12.60
2019-02-21T08:50:37.937Z,12.73
2019-02-21T08:53:07.254Z,12.40
2019-02-21T08:55:35.481Z,12.60
2019-02-21T08:58:04.390Z,12.35
2019-02-21T09:00:32.039Z,12.50
2019-02-21T09:02:59.345Z,12.53
2019-02-21T09:05:27.580Z,12.63
2019-02-21T09:07:55.158Z,13.37
2019-02-21T09:10:22.623Z,12.77
2019-02-21T09:12:50.076Z,13.43
2019-02-21T09:15:17.531Z,12.87
2019-02-21T09:17:45.107Z,11.97
2019-02-21T09:20:12.560Z,12.67
2019-02-21T09:22:40.825Z,13.40
2019-02-21T09:25:08.976Z,13.63
2019-02-21T09:27:36.443Z,13.70
2019-02-21T09:30:05.701Z,13.57
2019-02-21T09:32:33.168Z,14.20
2019-02-21T09:35:01.831Z,13.83
2019-02-21T09:37:30.106Z,13.83
2019-02-21T09:39:57.589Z,14.30
2019-02-21T09:42:25.046Z,13.37
2019-02-21T09:44:52.514Z,14.20
2019-02-21T09:47:20.799Z,15.00
2019-02-21T09:49:49.027Z,14.87
2019-02-21T09:52:17.345Z,13.20
2019-02-21T09:54:47.366Z,12.90
2019-02-21T09:57:13.443Z,14.17
2019-02-21T09:59:40.641Z,13.87
2019-02-21T10:02:08.170Z,14.83
2019-02-21T10:04:35.692Z,14.03
2019-02-21T10:07:04.661Z,15.23
2019-02-21T10:09:32.148Z,14.87
2019-02-21T10:11:59.709Z,14.87
2019-02-21T10:14:27.277Z,13.93
2019-02-21T10:16:54.943Z,15.13
2019-02-21T10:19:22.493Z,15.30
2019-02-21T10:21:50.033Z,14.83
2019-02-21T10:24:17.503Z,14.70
2019-02-21T10:26:44.958Z,15.03
2019-02-21T10:29:12.436Z,13.97
2019-02-21T10:31:39.905Z,14.43
2019-02-21T10:34:07.368Z,13.23
2019-02-21T10:36:34.822Z,15.30
2019-02-21T10:39:02.289Z,14.17
2019-02-21T10:41:29.753Z,14.90
2019-02-21T10:43:57.331Z,13.80
2019-02-21T10:46:24.889Z,14.93
2019-02-21T10:48:52.358Z,13.93
2019-02-21T10:51:19.813Z,13.13
2019-02-21T10:53:47.370Z,12.27
2019-02-21T10:56:14.856Z,13.40
2019-02-21T10:58:43.122Z,13.57
2019-02-21T11:01:10.584Z,12.53
2019-02-21T11:03:38.150Z,12.73
2019-02-21T11:06:05.609Z,13.13
2019-02-21T11:08:33.220Z,12.20
2019-02-21T11:11:00.676Z,12.20
2019-02-21T11:13:28.165Z,11.20
2019-02-21T11:15:55.623Z,11.07
2019-02-21T11:18:23.095Z,10.83
2019-02-21T11:20:50.598Z,11.63
2019-02-21T11:23:19.239Z,13.40
2019-02-21T11:25:46.941Z,12.10
2019-02-21T11:28:14.498Z,13.13
2019-02-21T11:30:43.134Z,13.50
2019-02-21T11:33:10.663Z,12.87
2019-02-21T11:35:38.210Z,13.73
2019-02-21T11:38:05.682Z,13.93
2019-02-21T11:40:33.126Z,14.83
2019-02-21T11:43:02.655Z,14.17
2019-02-21T11:45:28.186Z,14.10
2019-02-21T11:47:55.737Z,13.23
2019-02-21T11:50:23.200Z,14.13
2019-02-21T11:52:51.481Z,14.33
2019-02-21T11:55:19.695Z,12.93
2019-02-21T11:57:47.192Z,14.30
2019-02-21T12:00:15.580Z,13.50
2019-02-21T12:02:43.055Z,13.43
2019-02-21T12:05:17.443Z,14.43
2019-02-21T12:07:38.789Z,14.57
2019-02-21T12:10:07.044Z,14.00
2019-02-21T12:12:34.569Z,14.77
2019-02-21T12:15:03.747Z,13.70
2019-02-21T12:17:31.236Z,15.00
2019-02-21T12:19:59.477Z,14.07
2019-02-21T12:22:26.950Z,13.43
2019-02-21T12:24:54.416Z,15.60
2019-02-21T12:27:21.990Z,15.37
2019-02-21T12:29:49.479Z,14.33
2019-02-21T12:32:17.006Z,15.47
2019-02-21T12:34:44.466Z,14.77
2019-02-21T12:37:11.942Z,14.93
2019-02-21T12:39:39.497Z,13.10
2019-02-21T12:42:06.990Z,14.80
2019-02-21T12:44:35.214Z,14.90
2019-02-21T12:47:03.665Z,15.00
2019-02-21T12:49:32.743Z,14.60
2019-02-21T12:51:58.631Z,15.23
2019-02-21T12:54:26.111Z,14.50
2019-02-21T12:56:53.665Z,13.83
2019-02-21T12:59:21.116Z,14.80
2019-02-21T13:01:48.598Z,13.90
2019-02-21T13:04:16.052Z,14.90
2019-02-21T13:06:43.525Z,14.23
2019-02-21T13:09:10.998Z,13.97
2019-02-21T13:11:38.476Z,14.13
2019-02-21T13:14:06.746Z,13.57
2019-02-21T13:16:35.017Z,14.53
2019-02-21T13:19:02.572Z,13.93
2019-02-21T13:21:30.027Z,13.57
2019-02-21T13:23:57.498Z,14.43
2019-02-21T13:26:25.721Z,13.77
2019-02-21T13:28:53.186Z,13.93
2019-02-21T13:31:20.697Z,13.43
2019-02-21T13:33:48.171Z,13.90
2019-02-21T13:36:15.629Z,13.20
2019-02-21T13:38:43.103Z,15.43
2019-02-21T13:41:11.367Z,14.37
2019-02-21T13:43:38.840Z,13.17
2019-02-21T13:46:07.108Z,14.67
2019-02-21T13:48:34.825Z,14.63
2019-02-21T13:51:02.449Z,13.90
2019-02-21T13:53:29.991Z,14.07
2019-02-21T13:55:57.457Z,13.90
2019-02-21T13:58:25.026Z,14.47
2019-02-21T14:00:52.535Z,14.53
2019-02-21T14:03:20.066Z,13.77
2019-02-21T14:05:48.393Z,14.13
2019-02-21T14:08:15.908Z,14.13
2019-02-21T14:10:43.369Z,14.53
2019-02-21T14:13:11.880Z,14.10
2019-02-21T14:15:39.197Z,14.77
2019-02-21T14:18:06.669Z,14.17
2019-02-21T14:20:45.067Z,14.70
2019-02-21T14:23:03.847Z,13.57
2019-02-21T14:25:40.297Z,13.90
2019-02-21T14:28:00.430Z,13.50
2019-02-21T14:30:27.885Z,14.93
2019-02-21T14:32:57.939Z,14.93
2019-02-21T14:35:25.485Z,14.80
2019-02-21T14:37:53.757Z,14.73
2019-02-21T14:40:21.995Z,14.10
2019-02-21T14:42:50.297Z,13.87
2019-02-21T14:45:18.877Z,13.23
2019-02-21T14:47:46.332Z,13.53
2019-02-21T14:50:14.015Z,14.13
2019-02-21T14:52:42.252Z,12.57
2019-02-21T14:55:13.130Z,12.87
2019-02-21T14:57:41.522Z,12.53
2019-02-21T15:00:12.435Z,11.90
2019-02-21T15:02:40.014Z,12.20
2019-02-21T15:05:10.058Z,12.90
2019-02-21T15:07:35.089Z,12.90
2019-02-21T15:10:02.554Z,12.90
2019-02-21T15:12:30.051Z,11.50
2019-02-21T15:14:57.988Z,12.43
2019-02-21T15:17:25.496Z,12.23
2019-02-21T15:19:52.974Z,12.90
2019-02-21T15:22:20.441Z,11.70
2019-02-21T15:24:47.995Z,12.17
2019-02-21T15:27:15.452Z,11.67
2019-02-21T15:29:43.720Z,11.03
2019-02-21T15:32:13.585Z,11.87
2019-02-21T15:34:38.706Z,12.33
2019-02-21T15:37:06.169Z,11.70
2019-02-21T15:39:33.627Z,10.03
2019-02-21T15:42:01.083Z,11.40
2019-02-21T15:44:28.567Z,10.87
2019-02-21T15:46:56.028Z,11.30
2019-02-21T15:49:23.721Z,11.30
2019-02-21T15:51:51.115Z,11.17
2019-02-21T15:54:19.380Z,10.97
2019-02-21T15:56:46.850Z,11.00
2019-02-21T15:59:15.081Z,11.35
2019-02-21T16:01:47.634Z,10.87
2019-02-21T16:04:10.045Z,10.83
2019-02-21T16:06:39.448Z,10.67
2019-02-21T16:09:15.942Z,10.83
2019-02-21T16:11:33.249Z,10.73
2019-02-21T16:14:03.552Z,10.17
2019-02-21T16:16:28.359Z,9.87
2019-02-21T16:18:58.706Z,10.67
2019-02-21T16:21:24.301Z,10.60
2019-02-21T16:23:51.875Z,9.70
2019-02-21T16:26:19.329Z,9.13
2019-02-21T16:28:46.898Z,9.83
2019-02-21T16:31:14.445Z,10.47
2019-02-21T16:33:41.906Z,10.33
2019-02-21T16:36:09.388Z,10.93
2019-02-21T16:38:38.376Z,9.23
2019-02-21T16:41:05.952Z,9.73
2019-02-21T16:43:33.425Z,9.77
2019-02-21T16:46:07.729Z,10.27
2019-02-21T16:48:29.144Z,9.47
2019-02-21T16:50:56.607Z,9.67
2019-02-21T16:53:24.170Z,9.50
2019-02-21T16:55:51.728Z,10.30
2019-02-21T16:58:19.192Z,9.93
2019-02-21T17:00:53.305Z,8.40
2019-02-21T17:03:14.140Z,9.87
2019-02-21T17:05:41.687Z,12.50
2019-02-21T17:08:10.662Z,10.30
2019-02-21T17:10:38.137Z,9.70
2019-02-21T17:13:05.602Z,8.73
2019-02-21T17:15:33.056Z,10.33
2019-02-21T17:18:03.862Z,9.70
2019-02-21T17:20:28.099Z,9.37
2019-02-21T17:22:57.647Z,8.97
2019-02-21T17:25:26.027Z,10.43
2019-02-21T17:27:54.273Z,9.33
2019-02-21T17:30:21.734Z,9.57
2019-02-21T17:32:49.205Z,9.53
2019-02-21T17:35:16.770Z,10.60
2019-02-21T17:37:44.328Z,10.20
2019-02-21T17:40:15.521Z,8.93
2019-02-21T17:42:42.987Z,9.50
2019-02-21T17:45:10.446Z,9.68
2019-02-21T17:47:37.903Z,9.63
2019-02-21T17:50:05.412Z,9.50
2019-02-21T17:52:32.879Z,9.43
2019-02-21T17:55:00.350Z,9.80
2019-02-21T17:57:27.809Z,9.60
2019-02-21T17:59:55.283Z,10.00
2019-02-21T18:02:22.745Z,9.60
2019-02-21T18:04:50.958Z,9.97
2019-02-21T18:07:18.468Z,9.65
2019-02-21T18:09:46.020Z,9.07
2019-02-21T18:12:13.483Z,9.63
2019-02-21T18:14:41.069Z,9.03
2019-02-21T18:17:08.614Z,9.13
2019-02-21T18:19:36.189Z,10.20
2019-02-21T18:22:04.431Z,9.40
2019-02-21T18:24:31.894Z,10.33
2019-02-21T18:26:59.390Z,10.00
2019-02-21T18:29:28.701Z,10.93
2019-02-21T18:31:56.975Z,9.63
2019-02-21T18:34:24.435Z,10.20
2019-02-21T18:36:52.006Z,10.53
2019-02-21T18:39:19.459Z,10.10
2019-02-21T18:41:46.929Z,10.80
2019-02-21T18:44:14.376Z,11.03
2019-02-21T18:46:41.951Z,10.57
2019-02-21T18:49:09.406Z,10.30
2019-02-21T18:51:36.977Z,10.83
2019-02-21T18:54:04.425Z,10.87
2019-02-21T18:56:32.011Z,11.43
2019-02-21T18:58:59.556Z,10.30
2019-02-21T19:01:27.030Z,11.40
2019-02-21T19:03:55.253Z,10.30
2019-02-21T19:06:22.872Z,10.87
2019-02-21T19:08:51.101Z,10.70
2019-02-21T19:11:18.941Z,10.50
2019-02-21T19:13:47.165Z,9.97
2019-02-21T19:16:14.665Z,10.10
2019-02-21T19:18:42.232Z,9.60
2019-02-21T19:21:09.742Z,11.60
2019-02-21T19:23:37.255Z,10.13
2019-02-21T19:26:04.817Z,10.50
2019-02-21T19:28:32.403Z,10.77
2019-02-21T19:31:03.504Z,10.17
2019-02-21T19:33:30.971Z,11.20
2019-02-21T19:35:58.460Z,9.87
2019-02-21T19:38:25.939Z,10.40
2019-02-21T19:40:54.156Z,10.87
2019-02-21T19:43:21.615Z,9.60
2019-02-21T19:45:49.086Z,10.27
2019-02-21T19:48:16.584Z,9.50
2019-02-21T19:50:44.050Z,10.93
2019-02-21T19:53:14.253Z,10.50
2019-02-21T19:55:39.077Z,10.57
2019-02-21T19:58:06.537Z,10.83
2019-02-21T20:00:34.013Z,10.13
2019-02-21T20:03:02.288Z,10.57
2019-02-21T20:05:30.616Z,8.83
2019-02-21T20:08:08.101Z,10.80
2019-02-21T20:10:25.591Z,9.47
2019-02-21T20:12:53.239Z,10.07
2019-02-21T20:15:22.176Z,10.20
2019-02-21T20:17:50.427Z,9.30
2019-02-21T20:20:26.857Z,9.73
2019-02-21T20:22:54.324Z,10.80
2019-02-21T20:25:21.787Z,9.97
2019-02-21T20:27:49.250Z,9.73
2019-02-21T20:30:16.730Z,10.40
2019-02-21T20:32:44.190Z,9.80
2019-02-21T20:35:11.650Z,10.10
2019-02-21T20:37:39.135Z,10.17
2019-02-21T20:40:07.339Z,10.07
2019-02-21T20:42:34.799Z,9.70
2019-02-21T20:45:06.705Z,9.73
2019-02-21T20:47:34.184Z,9.67
2019-02-21T20:50:01.656Z,10.23
2019-02-21T20:52:29.112Z,10.33
2019-02-21T20:54:56.566Z,10.13
2019-02-21T20:57:24.165Z,10.33
2019-02-21T20:59:52.411Z,10.77
2019-02-21T21:02:19.986Z,10.17
2019-02-21T21:04:48.233Z,10.93
2019-02-21T21:07:24.753Z,11.50
2019-02-21T21:09:43.292Z,11.00
2019-02-21T21:12:10.783Z,11.97
2019-02-21T21:14:39.040Z,10.80
2019-02-21T21:17:06.496Z,10.97
2019-02-21T21:19:36.370Z,10.93
2019-02-21T21:22:02.209Z,12.40
2019-02-21T21:24:29.672Z,11.93
2019-02-21T21:26:57.145Z,11.47
2019-02-21T21:29:24.628Z,11.87
2019-02-21T21:31:52.184Z,10.33
2019-02-21T21:34:19.659Z,11.13
2019-02-21T21:36:47.893Z,11.03
2019-02-21T21:39:15.339Z,9.87
2019-02-21T21:41:42.862Z,11.13
2019-02-21T21:44:10.326Z,11.23
2019-02-21T21:46:37.797Z,11.53
2019-02-21T21:49:05.285Z,11.03
2019-02-21T21:51:34.070Z,10.40
2019-02-21T21:54:00.404Z,11.73
2019-02-21T21:56:27.829Z,10.47
2019-02-21T21:58:55.297Z,11.43
2019-02-21T22:01:24.314Z,11.20
2019-02-21T22:03:52.556Z,10.60
2019-02-21T22:06:20.016Z,11.27
2019-02-21T22:08:47.481Z,10.87
2019-02-21T22:11:14.926Z,9.90
2019-02-21T22:13:42.410Z,11.70
2019-02-21T22:16:09.991Z,11.13
2019-02-21T22:18:37.472Z,10.00
2019-02-21T22:21:04.967Z,11.73
2019-02-21T22:23:32.473Z,11.53
2019-02-21T22:26:00.287Z,11.63
2019-02-21T22:28:27.745Z,11.57
2019-02-21T22:30:57.420Z,10.90
2019-02-21T22:33:22.821Z,10.90
2019-02-21T22:35:50.316Z,12.13
2019-02-21T22:38:17.862Z,11.13
2019-02-21T22:40:45.328Z,9.93
2019-02-21T22:43:12.796Z,11.20
2019-02-21T22:45:41.024Z,11.10
2019-02-21T22:48:08.533Z,12.47
2019-02-21T22:50:36.000Z,11.63
2019-02-21T22:53:04.255Z,12.13
2019-02-21T22:55:31.809Z,12.83
2019-02-21T22:57:59.378Z,11.60
2019-02-21T23:03:33.393Z,15.35
2019-02-21T23:09:27.171Z,16.15
2019-02-21T23:11:44.564Z,13.20
2019-02-21T23:14:12.065Z,13.18
2019-02-21T23:16:41.039Z,13.17
2019-02-21T23:19:08.513Z,12.30
2019-02-21T23:21:35.958Z,12.43
2019-02-21T23:24:04.664Z,12.93
2019-02-21T23:26:32.132Z,12.43
2019-02-21T23:28:59.598Z,11.37
2019-02-21T23:31:27.054Z,12.47
2019-02-21T23:33:55.450Z,11.43
2019-02-21T23:36:22.926Z,12.07
2019-02-21T23:38:50.493Z,12.47
2019-02-21T23:41:18.751Z,11.73
2019-02-21T23:43:47.301Z,11.97
2019-02-21T23:46:14.475Z,11.87
2019-02-21T23:48:42.280Z,12.70
2019-02-21T23:51:10.510Z,11.60
2019-02-21T23:53:37.964Z,12.83
2019-02-21T23:56:05.469Z,11.07
2019-02-21T23:58:32.936Z,11.83
